PKWA/KWA METAR and TAF weather

Enter ICAO airport designator
Station Type Date Time Source
PKWA METAR 2023/02/06 19:40 UTC NOAA

PKWA 061940Z AUTO 07021G25KT 7SM SCT024 SCT030 SCT050 27/24 A2980 RMK AO2 P0001 T02690235


Station Type Date Time Source
PKWA Decoded METAR 2023/02/06 19:40 UTC NOAA

Kwajalein, Bucholz AAF, Kwajalein KMR ATOL Airport, Marshall Islands (PKWA) 08-43N 167-44E 2M
Feb 06, 2023 - 02:40 PM EST / 2023.02.06 1940 UTC
Wind: from the ENE (070 degrees) at 24 MPH (21 KT) gusting to 29 MPH (25 KT):0
Visibility: 7 mile(s):0
Sky conditions: partly cloudy
Precipitation last hour: 0.01 inches
Temperature: 80.4 F (26.9 C)
Dew Point: 74.3 F (23.5 C)
Relative Humidity: 81%
Pressure (altimeter): 29.8 in. Hg (1009 hPa)
ob: PKWA 061940Z AUTO 07021G25KT 7SM SCT024 SCT030 SCT050 27/24 A2980 RMK AO2 P0001 T02690235
cycle: 19

Station Type Date Time Source
PKWA TAF 2023/02/06 18:51 UTC NOAA

PKWA 061720Z 0618/0718 07022KT P6SM VCSH SCT020 SCT120

Example: see airport list